sensor_id;sensor_type;location;lat;lon;timestamp;P1;durP1;ratioP1;P2;durP2;ratioP2
61644;SDS011;47553;52.428;13.382;2022-12-18T00:00:53;22.02;;;6.50;;
61644;SDS011;47553;52.428;13.382;2022-12-18T00:02:55;22.02;;;6.60;;
61644;SDS011;47553;52.428;13.382;2022-12-18T00:04:57;21.23;;;6.68;;
61644;SDS011;47553;52.428;13.382;2022-12-18T00:07:00;22.23;;;6.57;;
61644;SDS011;47553;52.428;13.382;2022-12-18T00:09:02;26.70;;;7.20;;
61644;SDS011;47553;52.428;13.382;2022-12-18T00:11:04;24.42;;;6.90;;
61644;SDS011;47553;52.428;13.382;2022-12-18T00:13:07;25.15;;;7.80;;
61644;SDS011;47553;52.428;13.382;2022-12-18T00:15:10;22.42;;;7.18;;
61644;SDS011;47553;52.428;13.382;2022-12-18T00:17:12;30.77;;;8.13;;
61644;SDS011;47553;52.428;13.382;2022-12-18T00:19:14;26.40;;;7.47;;
61644;SDS011;47553;52.428;13.382;2022-12-18T00:21:16;29.38;;;8.50;;
61644;SDS011;47553;52.428;13.382;2022-12-18T00:23:19;30.52;;;8.23;;
61644;SDS011;47553;52.428;13.382;2022-12-18T00:25:21;30.88;;;7.93;;
61644;SDS011;47553;52.428;13.382;2022-12-18T00:27:22;29.05;;;8.50;;
61644;SDS011;47553;52.428;13.382;2022-12-18T00:29:24;29.45;;;8.45;;
61644;SDS011;47553;52.428;13.382;2022-12-18T00:31:25;29.88;;;8.70;;
61644;SDS011;47553;52.428;13.382;2022-12-18T00:33:27;27.38;;;8.35;;
61644;SDS011;47553;52.428;13.382;2022-12-18T00:35:29;28.52;;;8.07;;
61644;SDS011;47553;52.428;13.382;2022-12-18T00:37:30;25.13;;;7.53;;
61644;SDS011;47553;52.428;13.382;2022-12-18T00:39:35;28.88;;;8.07;;
61644;SDS011;47553;52.428;13.382;2022-12-18T00:41:37;28.25;;;7.82;;
61644;SDS011;47553;52.428;13.382;2022-12-18T00:43:38;29.38;;;8.80;;
61644;SDS011;47553;52.428;13.382;2022-12-18T00:45:41;28.23;;;8.50;;
61644;SDS011;47553;52.428;13.382;2022-12-18T00:47:43;32.13;;;8.85;;
61644;SDS011;47553;52.428;13.382;2022-12-18T00:49:44;32.60;;;9.73;;
61644;SDS011;47553;52.428;13.382;2022-12-18T00:51:46;28.63;;;7.75;;
61644;SDS011;47553;52.428;13.382;2022-12-18T00:53:48;30.73;;;7.45;;
61644;SDS011;47553;52.428;13.382;2022-12-18T00:55:51;30.45;;;8.13;;
61644;SDS011;47553;52.428;13.382;2022-12-18T00:57:53;26.15;;;8.43;;
61644;SDS011;47553;52.428;13.382;2022-12-18T00:59:54;27.08;;;7.95;;
61644;SDS011;47553;52.428;13.382;2022-12-18T01:01:56;29.77;;;8.45;;
61644;SDS011;47553;52.428;13.382;2022-12-18T01:03:58;31.25;;;7.85;;
61644;SDS011;47553;52.428;13.382;2022-12-18T01:06:04;30.52;;;8.73;;
61644;SDS011;47553;52.428;13.382;2022-12-18T01:08:07;27.88;;;8.20;;
61644;SDS011;47553;52.428;13.382;2022-12-18T01:10:09;26.52;;;7.30;;
61644;SDS011;47553;52.428;13.382;2022-12-18T01:12:13;28.02;;;8.88;;
61644;SDS011;47553;52.428;13.382;2022-12-18T01:14:15;30.55;;;8.23;;
61644;SDS011;47553;52.428;13.382;2022-12-18T01:16:17;27.30;;;8.13;;
61644;SDS011;47553;52.428;13.382;2022-12-18T01:18:19;31.60;;;8.10;;
61644;SDS011;47553;52.428;13.382;2022-12-18T01:20:20;28.05;;;7.18;;
61644;SDS011;47553;52.428;13.382;2022-12-18T01:22:22;30.55;;;7.72;;
61644;SDS011;47553;52.428;13.382;2022-12-18T01:24:24;22.95;;;7.82;;
61644;SDS011;47553;52.428;13.382;2022-12-18T01:26:26;30.05;;;8.07;;
61644;SDS011;47553;52.428;13.382;2022-12-18T01:28:29;28.35;;;7.68;;
61644;SDS011;47553;52.428;13.382;2022-12-18T01:30:30;29.77;;;7.82;;
61644;SDS011;47553;52.428;13.382;2022-12-18T01:32:32;25.50;;;6.95;;
61644;SDS011;47553;52.428;13.382;2022-12-18T01:34:34;29.38;;;7.53;;
61644;SDS011;47553;52.428;13.382;2022-12-18T01:36:37;25.38;;;7.55;;
61644;SDS011;47553;52.428;13.382;2022-12-18T01:38:42;24.77;;;7.45;;
61644;SDS011;47553;52.428;13.382;2022-12-18T01:40:44;30.25;;;7.50;;
61644;SDS011;47553;52.428;13.382;2022-12-18T01:42:48;25.55;;;7.68;;
61644;SDS011;47553;52.428;13.382;2022-12-18T01:46:58;26.77;;;6.72;;
61644;SDS011;47553;52.428;13.382;2022-12-18T01:51:02;29.15;;;7.32;;
61644;SDS011;47553;52.428;13.382;2022-12-18T01:53:06;29.05;;;7.55;;
61644;SDS011;47553;52.428;13.382;2022-12-18T01:55:14;24.20;;;7.05;;
61644;SDS011;47553;52.428;13.382;2022-12-18T01:57:19;28.58;;;7.93;;
61644;SDS011;47553;52.428;13.382;2022-12-18T02:01:24;28.33;;;8.50;;
61644;SDS011;47553;52.428;13.382;2022-12-18T02:03:27;30.67;;;9.13;;
61644;SDS011;47553;52.428;13.382;2022-12-18T02:05:34;33.22;;;9.30;;
61644;SDS011;47553;52.428;13.382;2022-12-18T02:07:42;34.92;;;8.50;;
61644;SDS011;47553;52.428;13.382;2022-12-18T02:09:54;34.42;;;9.15;;
61644;SDS011;47553;52.428;13.382;2022-12-18T02:12:01;28.75;;;8.55;;
61644;SDS011;47553;52.428;13.382;2022-12-18T02:14:10;33.80;;;8.38;;
61644;SDS011;47553;52.428;13.382;2022-12-18T02:16:21;26.75;;;8.23;;
61644;SDS011;47553;52.428;13.382;2022-12-18T02:18:32;29.48;;;7.70;;
61644;SDS011;47553;52.428;13.382;2022-12-18T02:20:40;30.35;;;8.02;;
61644;SDS011;47553;52.428;13.382;2022-12-18T02:22:49;32.28;;;8.48;;
61644;SDS011;47553;52.428;13.382;2022-12-18T02:25:10;31.73;;;8.05;;
61644;SDS011;47553;52.428;13.382;2022-12-18T02:27:21;34.30;;;9.40;;
61644;SDS011;47553;52.428;13.382;2022-12-18T02:29:23;31.90;;;8.95;;
61644;SDS011;47553;52.428;13.382;2022-12-18T02:31:27;29.17;;;8.40;;
61644;SDS011;47553;52.428;13.382;2022-12-18T02:33:32;30.75;;;9.07;;
61644;SDS011;47553;52.428;13.382;2022-12-18T02:35:37;28.65;;;8.60;;
61644;SDS011;47553;52.428;13.382;2022-12-18T02:37:41;25.50;;;8.40;;
61644;SDS011;47553;52.428;13.382;2022-12-18T02:39:46;34.45;;;9.02;;
61644;SDS011;47553;52.428;13.382;2022-12-18T02:41:49;36.70;;;10.10;;
61644;SDS011;47553;52.428;13.382;2022-12-18T02:43:55;32.65;;;9.32;;
61644;SDS011;47553;52.428;13.382;2022-12-18T02:45:58;29.38;;;8.38;;
61644;SDS011;47553;52.428;13.382;2022-12-18T02:48:00;26.90;;;7.70;;
61644;SDS011;47553;52.428;13.382;2022-12-18T02:50:05;24.40;;;7.40;;
61644;SDS011;47553;52.428;13.382;2022-12-18T02:52:13;27.75;;;7.20;;
61644;SDS011;47553;52.428;13.382;2022-12-18T02:56:57;30.52;;;7.85;;
61644;SDS011;47553;52.428;13.382;2022-12-18T02:59:07;32.45;;;9.05;;
61644;SDS011;47553;52.428;13.382;2022-12-18T03:01:15;31.23;;;8.18;;
61644;SDS011;47553;52.428;13.382;2022-12-18T03:03:22;28.38;;;8.45;;
61644;SDS011;47553;52.428;13.382;2022-12-18T03:05:29;27.90;;;8.00;;
61644;SDS011;47553;52.428;13.382;2022-12-18T03:07:35;31.13;;;8.10;;
61644;SDS011;47553;52.428;13.382;2022-12-18T03:09:40;31.30;;;8.48;;
61644;SDS011;47553;52.428;13.382;2022-12-18T03:11:48;32.95;;;9.27;;
61644;SDS011;47553;52.428;13.382;2022-12-18T03:13:55;37.88;;;10.00;;
61644;SDS011;47553;52.428;13.382;2022-12-18T03:16:01;37.03;;;9.73;;
61644;SDS011;47553;52.428;13.382;2022-12-18T03:18:05;34.47;;;10.05;;
61644;SDS011;47553;52.428;13.382;2022-12-18T03:20:16;34.55;;;9.13;;
61644;SDS011;47553;52.428;13.382;2022-12-18T03:22:21;34.58;;;9.57;;
61644;SDS011;47553;52.428;13.382;2022-12-18T03:24:25;34.65;;;9.45;;
61644;SDS011;47553;52.428;13.382;2022-12-18T03:26:29;38.45;;;10.20;;
61644;SDS011;47553;52.428;13.382;2022-12-18T03:28:31;34.78;;;9.63;;
61644;SDS011;47553;52.428;13.382;2022-12-18T03:30:38;43.53;;;11.10;;
61644;SDS011;47553;52.428;13.382;2022-12-18T03:32:44;37.65;;;10.05;;
61644;SDS011;47553;52.428;13.382;2022-12-18T03:34:51;35.95;;;9.98;;
61644;SDS011;47553;52.428;13.382;2022-12-18T03:37:00;39.67;;;10.20;;
61644;SDS011;47553;52.428;13.382;2022-12-18T03:39:03;31.63;;;9.20;;
61644;SDS011;47553;52.428;13.382;2022-12-18T03:41:06;34.75;;;9.25;;
61644;SDS011;47553;52.428;13.382;2022-12-18T03:43:16;36.65;;;9.50;;
61644;SDS011;47553;52.428;13.382;2022-12-18T03:45:27;44.97;;;9.52;;
61644;SDS011;47553;52.428;13.382;2022-12-18T03:47:38;40.10;;;10.77;;
61644;SDS011;47553;52.428;13.382;2022-12-18T03:49:50;37.78;;;10.20;;
61644;SDS011;47553;52.428;13.382;2022-12-18T03:52:01;40.28;;;11.07;;
61644;SDS011;47553;52.428;13.382;2022-12-18T03:54:06;45.90;;;11.40;;
61644;SDS011;47553;52.428;13.382;2022-12-18T03:56:09;55.28;;;12.38;;
61644;SDS011;47553;52.428;13.382;2022-12-18T03:58:15;42.42;;;11.70;;
61644;SDS011;47553;52.428;13.382;2022-12-18T04:00:20;48.05;;;11.55;;
61644;SDS011;47553;52.428;13.382;2022-12-18T04:02:22;53.03;;;13.80;;
61644;SDS011;47553;52.428;13.382;2022-12-18T04:04:25;49.28;;;12.38;;
61644;SDS011;47553;52.428;13.382;2022-12-18T04:06:30;51.58;;;12.85;;
61644;SDS011;47553;52.428;13.382;2022-12-18T04:08:33;51.60;;;12.48;;
61644;SDS011;47553;52.428;13.382;2022-12-18T04:10:35;52.95;;;11.93;;
61644;SDS011;47553;52.428;13.382;2022-12-18T04:12:37;52.65;;;13.65;;
61644;SDS011;47553;52.428;13.382;2022-12-18T04:14:39;48.22;;;12.23;;
61644;SDS011;47553;52.428;13.382;2022-12-18T04:16:41;52.13;;;11.95;;
61644;SDS011;47553;52.428;13.382;2022-12-18T04:18:42;52.83;;;11.98;;
61644;SDS011;47553;52.428;13.382;2022-12-18T04:20:44;47.25;;;12.02;;
61644;SDS011;47553;52.428;13.382;2022-12-18T04:22:47;44.13;;;10.93;;
61644;SDS011;47553;52.428;13.382;2022-12-18T04:24:49;50.75;;;11.52;;
61644;SDS011;47553;52.428;13.382;2022-12-18T04:26:50;41.58;;;10.23;;
61644;SDS011;47553;52.428;13.382;2022-12-18T04:28:52;38.80;;;11.48;;
61644;SDS011;47553;52.428;13.382;2022-12-18T04:30:54;39.58;;;10.65;;
61644;SDS011;47553;52.428;13.382;2022-12-18T04:32:55;35.13;;;9.48;;
61644;SDS011;47553;52.428;13.382;2022-12-18T04:34:57;38.25;;;11.48;;
61644;SDS011;47553;52.428;13.382;2022-12-18T04:36:58;45.10;;;10.77;;
61644;SDS011;47553;52.428;13.382;2022-12-18T04:39:01;39.17;;;9.93;;
61644;SDS011;47553;52.428;13.382;2022-12-18T04:41:03;36.63;;;10.05;;
61644;SDS011;47553;52.428;13.382;2022-12-18T04:43:05;34.72;;;9.30;;
61644;SDS011;47553;52.428;13.382;2022-12-18T04:45:07;34.72;;;9.07;;
61644;SDS011;47553;52.428;13.382;2022-12-18T04:47:09;41.70;;;10.40;;
61644;SDS011;47553;52.428;13.382;2022-12-18T04:49:11;41.75;;;9.98;;
61644;SDS011;47553;52.428;13.382;2022-12-18T04:51:12;33.53;;;8.90;;
61644;SDS011;47553;52.428;13.382;2022-12-18T04:55:17;32.28;;;8.27;;
61644;SDS011;47553;52.428;13.382;2022-12-18T04:57:18;39.92;;;9.77;;
61644;SDS011;47553;52.428;13.382;2022-12-18T04:59:20;38.20;;;9.65;;
61644;SDS011;47553;52.428;13.382;2022-12-18T05:01:21;39.58;;;9.73;;
61644;SDS011;47553;52.428;13.382;2022-12-18T05:03:23;32.03;;;9.20;;
61644;SDS011;47553;52.428;13.382;2022-12-18T05:05:25;40.88;;;9.95;;
61644;SDS011;47553;52.428;13.382;2022-12-18T05:07:27;34.88;;;9.50;;
61644;SDS011;47553;52.428;13.382;2022-12-18T05:09:29;38.08;;;11.05;;
61644;SDS011;47553;52.428;13.382;2022-12-18T05:11:32;42.33;;;10.88;;
61644;SDS011;47553;52.428;13.382;2022-12-18T05:13:34;37.47;;;10.25;;
61644;SDS011;47553;52.428;13.382;2022-12-18T05:15:36;34.60;;;9.98;;
61644;SDS011;47553;52.428;13.382;2022-12-18T05:17:38;42.88;;;10.80;;
61644;SDS011;47553;52.428;13.382;2022-12-18T05:19:40;42.85;;;10.85;;
61644;SDS011;47553;52.428;13.382;2022-12-18T05:21:41;47.20;;;11.48;;
61644;SDS011;47553;52.428;13.382;2022-12-18T05:23:43;43.28;;;10.93;;
61644;SDS011;47553;52.428;13.382;2022-12-18T05:25:46;41.08;;;10.90;;
61644;SDS011;47553;52.428;13.382;2022-12-18T05:27:50;40.60;;;10.98;;
61644;SDS011;47553;52.428;13.382;2022-12-18T05:29:52;40.88;;;10.88;;
61644;SDS011;47553;52.428;13.382;2022-12-18T05:31:53;50.05;;;11.85;;
61644;SDS011;47553;52.428;13.382;2022-12-18T05:33:55;49.67;;;11.32;;
61644;SDS011;47553;52.428;13.382;2022-12-18T05:35:57;43.45;;;11.63;;
61644;SDS011;47553;52.428;13.382;2022-12-18T05:38:00;47.40;;;11.30;;
61644;SDS011;47553;52.428;13.382;2022-12-18T05:40:01;41.80;;;12.35;;
61644;SDS011;47553;52.428;13.382;2022-12-18T05:42:03;48.05;;;12.10;;
61644;SDS011;47553;52.428;13.382;2022-12-18T05:44:06;52.20;;;12.45;;
61644;SDS011;47553;52.428;13.382;2022-12-18T05:46:09;49.88;;;12.77;;
61644;SDS011;47553;52.428;13.382;2022-12-18T05:48:14;47.88;;;12.40;;
61644;SDS011;47553;52.428;13.382;2022-12-18T05:50:21;47.05;;;11.68;;
61644;SDS011;47553;52.428;13.382;2022-12-18T05:52:23;45.10;;;12.55;;
61644;SDS011;47553;52.428;13.382;2022-12-18T05:56:28;50.47;;;12.20;;
61644;SDS011;47553;52.428;13.382;2022-12-18T05:58:30;43.60;;;11.68;;
61644;SDS011;47553;52.428;13.382;2022-12-18T06:00:34;43.38;;;11.15;;
61644;SDS011;47553;52.428;13.382;2022-12-18T06:02:37;40.92;;;11.82;;
61644;SDS011;47553;52.428;13.382;2022-12-18T06:04:38;46.42;;;11.85;;
61644;SDS011;47553;52.428;13.382;2022-12-18T06:06:40;48.05;;;12.10;;
61644;SDS011;47553;52.428;13.382;2022-12-18T06:08:42;48.60;;;12.52;;
61644;SDS011;47553;52.428;13.382;2022-12-18T06:10:49;48.97;;;12.32;;
61644;SDS011;47553;52.428;13.382;2022-12-18T06:12:52;45.05;;;12.07;;
61644;SDS011;47553;52.428;13.382;2022-12-18T06:14:53;45.20;;;11.75;;
61644;SDS011;47553;52.428;13.382;2022-12-18T06:16:56;44.42;;;11.85;;
61644;SDS011;47553;52.428;13.382;2022-12-18T06:18:58;47.85;;;12.50;;
61644;SDS011;47553;52.428;13.382;2022-12-18T06:21:00;53.75;;;13.43;;
61644;SDS011;47553;52.428;13.382;2022-12-18T06:23:02;45.05;;;11.93;;
61644;SDS011;47553;52.428;13.382;2022-12-18T06:25:05;47.28;;;12.10;;
61644;SDS011;47553;52.428;13.382;2022-12-18T06:27:08;49.35;;;11.93;;
61644;SDS011;47553;52.428;13.382;2022-12-18T06:29:09;46.90;;;11.65;;
61644;SDS011;47553;52.428;13.382;2022-12-18T06:31:11;46.53;;;12.43;;
61644;SDS011;47553;52.428;13.382;2022-12-18T06:35:16;43.83;;;10.52;;
61644;SDS011;47553;52.428;13.382;2022-12-18T06:37:18;46.70;;;13.00;;
61644;SDS011;47553;52.428;13.382;2022-12-18T06:39:20;43.45;;;11.40;;
61644;SDS011;47553;52.428;13.382;2022-12-18T06:41:21;48.45;;;11.27;;
61644;SDS011;47553;52.428;13.382;2022-12-18T06:43:23;42.42;;;10.82;;
61644;SDS011;47553;52.428;13.382;2022-12-18T06:45:25;41.90;;;11.40;;
61644;SDS011;47553;52.428;13.382;2022-12-18T06:47:27;42.45;;;10.70;;
61644;SDS011;47553;52.428;13.382;2022-12-18T06:49:33;39.80;;;11.00;;
61644;SDS011;47553;52.428;13.382;2022-12-18T06:51:34;40.13;;;10.00;;
61644;SDS011;47553;52.428;13.382;2022-12-18T06:53:37;41.47;;;10.88;;
61644;SDS011;47553;52.428;13.382;2022-12-18T06:55:39;41.13;;;11.30;;
61644;SDS011;47553;52.428;13.382;2022-12-18T06:57:41;34.80;;;9.20;;
61644;SDS011;47553;52.428;13.382;2022-12-18T06:59:43;36.10;;;9.45;;
61644;SDS011;47553;52.428;13.382;2022-12-18T07:01:44;37.40;;;9.60;;
61644;SDS011;47553;52.428;13.382;2022-12-18T07:03:46;29.95;;;8.55;;
61644;SDS011;47553;52.428;13.382;2022-12-18T07:05:53;37.95;;;8.77;;
61644;SDS011;47553;52.428;13.382;2022-12-18T07:07:55;32.33;;;8.13;;
61644;SDS011;47553;52.428;13.382;2022-12-18T07:09:56;38.40;;;9.38;;
61644;SDS011;47553;52.428;13.382;2022-12-18T07:11:58;33.72;;;9.68;;
61644;SDS011;47553;52.428;13.382;2022-12-18T07:14:00;31.05;;;8.65;;
61644;SDS011;47553;52.428;13.382;2022-12-18T07:16:05;35.03;;;8.25;;
61644;SDS011;47553;52.428;13.382;2022-12-18T07:18:18;27.83;;;8.52;;
61644;SDS011;47553;52.428;13.382;2022-12-18T07:20:20;28.67;;;8.18;;
61644;SDS011;47553;52.428;13.382;2022-12-18T07:22:23;28.83;;;8.55;;
61644;SDS011;47553;52.428;13.382;2022-12-18T07:24:26;29.73;;;8.10;;
61644;SDS011;47553;52.428;13.382;2022-12-18T07:26:27;28.48;;;8.05;;
61644;SDS011;47553;52.428;13.382;2022-12-18T07:28:29;31.58;;;8.40;;
61644;SDS011;47553;52.428;13.382;2022-12-18T07:30:31;26.83;;;7.47;;
61644;SDS011;47553;52.428;13.382;2022-12-18T07:32:32;32.33;;;8.80;;
61644;SDS011;47553;52.428;13.382;2022-12-18T07:34:34;28.50;;;8.65;;
61644;SDS011;47553;52.428;13.382;2022-12-18T07:36:36;27.98;;;8.35;;
61644;SDS011;47553;52.428;13.382;2022-12-18T07:38:39;34.28;;;10.02;;
61644;SDS011;47553;52.428;13.382;2022-12-18T07:40:40;27.42;;;8.20;;
61644;SDS011;47553;52.428;13.382;2022-12-18T07:42:42;33.17;;;9.43;;
61644;SDS011;47553;52.428;13.382;2022-12-18T07:44:44;30.13;;;8.55;;
61644;SDS011;47553;52.428;13.382;2022-12-18T07:46:45;27.90;;;8.45;;
61644;SDS011;47553;52.428;13.382;2022-12-18T07:48:47;35.67;;;9.00;;
61644;SDS011;47553;52.428;13.382;2022-12-18T07:50:50;32.45;;;9.10;;
61644;SDS011;47553;52.428;13.382;2022-12-18T07:52:51;27.83;;;7.50;;
61644;SDS011;47553;52.428;13.382;2022-12-18T07:54:54;31.10;;;8.43;;
61644;SDS011;47553;52.428;13.382;2022-12-18T07:56:56;30.85;;;8.57;;
61644;SDS011;47553;52.428;13.382;2022-12-18T07:58:58;32.03;;;7.85;;
61644;SDS011;47553;52.428;13.382;2022-12-18T08:01:04;33.75;;;8.73;;
61644;SDS011;47553;52.428;13.382;2022-12-18T08:03:06;31.67;;;8.65;;
61644;SDS011;47553;52.428;13.382;2022-12-18T08:05:08;29.63;;;8.27;;
61644;SDS011;47553;52.428;13.382;2022-12-18T08:07:10;31.45;;;8.77;;
61644;SDS011;47553;52.428;13.382;2022-12-18T08:09:11;31.00;;;8.15;;
61644;SDS011;47553;52.428;13.382;2022-12-18T08:11:14;32.30;;;8.25;;
61644;SDS011;47553;52.428;13.382;2022-12-18T08:13:16;31.30;;;8.60;;
61644;SDS011;47553;52.428;13.382;2022-12-18T08:17:19;35.40;;;8.80;;
61644;SDS011;47553;52.428;13.382;2022-12-18T08:19:21;34.80;;;8.98;;
61644;SDS011;47553;52.428;13.382;2022-12-18T08:21:23;30.38;;;7.90;;
61644;SDS011;47553;52.428;13.382;2022-12-18T08:23:26;39.28;;;10.45;;
61644;SDS011;47553;52.428;13.382;2022-12-18T08:25:42;38.65;;;11.52;;
61644;SDS011;47553;52.428;13.382;2022-12-18T08:27:45;34.78;;;9.07;;
61644;SDS011;47553;52.428;13.382;2022-12-18T08:29:46;36.63;;;8.95;;
61644;SDS011;47553;52.428;13.382;2022-12-18T08:31:48;32.72;;;8.95;;
61644;SDS011;47553;52.428;13.382;2022-12-18T08:33:50;27.55;;;7.78;;
61644;SDS011;47553;52.428;13.382;2022-12-18T08:35:52;33.20;;;7.93;;
61644;SDS011;47553;52.428;13.382;2022-12-18T08:37:54;33.05;;;9.00;;
61644;SDS011;47553;52.428;13.382;2022-12-18T08:39:55;29.67;;;7.63;;
61644;SDS011;47553;52.428;13.382;2022-12-18T08:41:57;36.80;;;9.10;;
61644;SDS011;47553;52.428;13.382;2022-12-18T08:44:00;29.92;;;8.18;;
61644;SDS011;47553;52.428;13.382;2022-12-18T08:46:02;30.55;;;8.65;;
61644;SDS011;47553;52.428;13.382;2022-12-18T08:48:04;27.50;;;7.93;;
61644;SDS011;47553;52.428;13.382;2022-12-18T08:50:06;32.20;;;9.25;;
61644;SDS011;47553;52.428;13.382;2022-12-18T08:52:08;30.60;;;8.43;;
61644;SDS011;47553;52.428;13.382;2022-12-18T08:54:10;31.95;;;9.23;;
61644;SDS011;47553;52.428;13.382;2022-12-18T08:56:13;27.35;;;7.38;;
61644;SDS011;47553;52.428;13.382;2022-12-18T08:58:15;28.77;;;8.15;;
61644;SDS011;47553;52.428;13.382;2022-12-18T09:00:18;34.78;;;9.60;;
61644;SDS011;47553;52.428;13.382;2022-12-18T09:02:20;29.52;;;8.60;;
61644;SDS011;47553;52.428;13.382;2022-12-18T09:06:23;30.60;;;7.55;;
61644;SDS011;47553;52.428;13.382;2022-12-18T09:08:25;32.58;;;9.23;;
61644;SDS011;47553;52.428;13.382;2022-12-18T09:10:27;26.92;;;8.38;;
61644;SDS011;47553;52.428;13.382;2022-12-18T09:12:28;23.25;;;7.68;;
61644;SDS011;47553;52.428;13.382;2022-12-18T09:16:33;29.05;;;7.65;;
61644;SDS011;47553;52.428;13.382;2022-12-18T09:18:35;28.05;;;8.68;;
61644;SDS011;47553;52.428;13.382;2022-12-18T09:20:37;25.75;;;8.43;;
61644;SDS011;47553;52.428;13.382;2022-12-18T09:22:40;31.02;;;9.20;;
61644;SDS011;47553;52.428;13.382;2022-12-18T09:24:41;31.33;;;8.73;;
61644;SDS011;47553;52.428;13.382;2022-12-18T09:26:43;30.05;;;8.57;;
61644;SDS011;47553;52.428;13.382;2022-12-18T09:28:47;28.15;;;7.57;;
61644;SDS011;47553;52.428;13.382;2022-12-18T09:32:52;30.83;;;8.20;;
61644;SDS011;47553;52.428;13.382;2022-12-18T09:34:54;23.88;;;7.70;;
61644;SDS011;47553;52.428;13.382;2022-12-18T09:36:56;28.52;;;8.35;;
61644;SDS011;47553;52.428;13.382;2022-12-18T09:38:58;28.67;;;7.95;;
61644;SDS011;47553;52.428;13.382;2022-12-18T09:41:06;29.33;;;8.32;;
61644;SDS011;47553;52.428;13.382;2022-12-18T09:43:28;27.08;;;8.10;;
61644;SDS011;47553;52.428;13.382;2022-12-18T09:45:35;30.30;;;8.02;;
61644;SDS011;47553;52.428;13.382;2022-12-18T09:47:45;20.50;;;7.55;;
61644;SDS011;47553;52.428;13.382;2022-12-18T09:49:56;25.95;;;7.00;;
61644;SDS011;47553;52.428;13.382;2022-12-18T09:52:03;27.75;;;8.18;;
61644;SDS011;47553;52.428;13.382;2022-12-18T09:54:11;22.90;;;6.68;;
61644;SDS011;47553;52.428;13.382;2022-12-18T09:56:19;31.55;;;8.45;;
61644;SDS011;47553;52.428;13.382;2022-12-18T09:58:24;26.55;;;7.25;;
61644;SDS011;47553;52.428;13.382;2022-12-18T10:00:30;26.23;;;8.25;;
61644;SDS011;47553;52.428;13.382;2022-12-18T10:02:32;28.60;;;7.63;;
61644;SDS011;47553;52.428;13.382;2022-12-18T10:06:38;23.25;;;7.25;;
61644;SDS011;47553;52.428;13.382;2022-12-18T10:08:46;25.23;;;7.82;;
61644;SDS011;47553;52.428;13.382;2022-12-18T10:10:56;23.92;;;7.22;;
61644;SDS011;47553;52.428;13.382;2022-12-18T10:13:04;30.33;;;8.35;;
61644;SDS011;47553;52.428;13.382;2022-12-18T10:15:13;26.77;;;8.40;;
61644;SDS011;47553;52.428;13.382;2022-12-18T10:17:23;28.23;;;8.52;;
61644;SDS011;47553;52.428;13.382;2022-12-18T10:19:37;28.90;;;8.07;;
61644;SDS011;47553;52.428;13.382;2022-12-18T10:21:44;29.65;;;8.40;;
61644;SDS011;47553;52.428;13.382;2022-12-18T10:23:54;28.67;;;9.02;;
61644;SDS011;47553;52.428;13.382;2022-12-18T10:26:05;31.92;;;8.23;;
61644;SDS011;47553;52.428;13.382;2022-12-18T10:28:09;27.35;;;8.25;;
61644;SDS011;47553;52.428;13.382;2022-12-18T10:30:20;27.88;;;7.88;;
61644;SDS011;47553;52.428;13.382;2022-12-18T10:32:24;28.15;;;8.38;;
61644;SDS011;47553;52.428;13.382;2022-12-18T10:34:27;35.15;;;8.93;;
61644;SDS011;47553;52.428;13.382;2022-12-18T10:36:29;28.58;;;7.78;;
61644;SDS011;47553;52.428;13.382;2022-12-18T10:38:33;29.92;;;8.73;;
61644;SDS011;47553;52.428;13.382;2022-12-18T10:40:48;29.50;;;8.65;;
61644;SDS011;47553;52.428;13.382;2022-12-18T10:43:01;34.30;;;9.07;;
61644;SDS011;47553;52.428;13.382;2022-12-18T10:45:11;31.50;;;8.68;;
61644;SDS011;47553;52.428;13.382;2022-12-18T10:47:17;31.23;;;8.15;;
61644;SDS011;47553;52.428;13.382;2022-12-18T10:49:23;29.58;;;8.27;;
61644;SDS011;47553;52.428;13.382;2022-12-18T10:51:28;29.67;;;9.25;;
61644;SDS011;47553;52.428;13.382;2022-12-18T10:53:35;34.13;;;9.90;;
61644;SDS011;47553;52.428;13.382;2022-12-18T10:55:38;36.13;;;9.75;;
61644;SDS011;47553;52.428;13.382;2022-12-18T10:57:45;31.42;;;8.52;;
61644;SDS011;47553;52.428;13.382;2022-12-18T10:59:50;28.50;;;8.45;;
61644;SDS011;47553;52.428;13.382;2022-12-18T11:01:54;37.22;;;9.20;;
61644;SDS011;47553;52.428;13.382;2022-12-18T11:04:00;32.38;;;9.60;;
61644;SDS011;47553;52.428;13.382;2022-12-18T11:06:10;33.67;;;10.27;;
61644;SDS011;47553;52.428;13.382;2022-12-18T11:08:19;31.80;;;8.30;;
61644;SDS011;47553;52.428;13.382;2022-12-18T11:10:25;31.83;;;8.05;;
61644;SDS011;47553;52.428;13.382;2022-12-18T11:12:31;33.67;;;9.02;;
61644;SDS011;47553;52.428;13.382;2022-12-18T11:14:33;28.88;;;8.60;;
61644;SDS011;47553;52.428;13.382;2022-12-18T11:16:47;34.65;;;8.70;;
61644;SDS011;47553;52.428;13.382;2022-12-18T11:19:13;27.52;;;8.07;;
61644;SDS011;47553;52.428;13.382;2022-12-18T11:21:23;29.25;;;7.97;;
61644;SDS011;47553;52.428;13.382;2022-12-18T11:23:25;29.13;;;8.55;;
61644;SDS011;47553;52.428;13.382;2022-12-18T11:25:30;30.08;;;8.25;;
61644;SDS011;47553;52.428;13.382;2022-12-18T11:27:35;27.65;;;7.53;;
61644;SDS011;47553;52.428;13.382;2022-12-18T11:29:39;30.17;;;8.18;;
61644;SDS011;47553;52.428;13.382;2022-12-18T11:31:47;34.63;;;8.52;;
61644;SDS011;47553;52.428;13.382;2022-12-18T11:36:14;34.53;;;7.38;;
61644;SDS011;47553;52.428;13.382;2022-12-18T11:38:18;25.40;;;8.23;;
61644;SDS011;47553;52.428;13.382;2022-12-18T11:40:25;28.20;;;7.40;;
61644;SDS011;47553;52.428;13.382;2022-12-18T11:42:34;30.67;;;9.10;;
61644;SDS011;47553;52.428;13.382;2022-12-18T11:44:44;32.75;;;9.20;;
61644;SDS011;47553;52.428;13.382;2022-12-18T11:46:51;26.35;;;7.47;;
61644;SDS011;47553;52.428;13.382;2022-12-18T11:48:57;28.20;;;7.75;;
61644;SDS011;47553;52.428;13.382;2022-12-18T11:51:02;28.73;;;8.88;;
61644;SDS011;47553;52.428;13.382;2022-12-18T11:53:10;30.17;;;8.25;;
61644;SDS011;47553;52.428;13.382;2022-12-18T11:55:13;29.48;;;8.05;;
61644;SDS011;47553;52.428;13.382;2022-12-18T11:57:18;26.77;;;8.10;;
61644;SDS011;47553;52.428;13.382;2022-12-18T11:59:35;27.13;;;7.60;;
61644;SDS011;47553;52.428;13.382;2022-12-18T12:01:46;30.15;;;7.22;;
61644;SDS011;47553;52.428;13.382;2022-12-18T12:06:23;29.02;;;7.90;;
61644;SDS011;47553;52.428;13.382;2022-12-18T12:08:35;30.33;;;8.00;;
61644;SDS011;47553;52.428;13.382;2022-12-18T12:10:52;27.60;;;7.70;;
61644;SDS011;47553;52.428;13.382;2022-12-18T12:13:15;26.95;;;7.43;;
61644;SDS011;47553;52.428;13.382;2022-12-18T12:15:42;27.52;;;8.20;;
61644;SDS011;47553;52.428;13.382;2022-12-18T12:17:56;21.73;;;6.90;;
61644;SDS011;47553;52.428;13.382;2022-12-18T12:20:13;29.25;;;8.90;;
61644;SDS011;47553;52.428;13.382;2022-12-18T12:22:23;29.38;;;8.15;;
61644;SDS011;47553;52.428;13.382;2022-12-18T12:24:36;30.27;;;8.25;;
61644;SDS011;47553;52.428;13.382;2022-12-18T12:26:48;24.08;;;7.63;;
61644;SDS011;47553;52.428;13.382;2022-12-18T12:28:59;27.55;;;8.43;;
61644;SDS011;47553;52.428;13.382;2022-12-18T12:31:13;26.02;;;8.35;;
61644;SDS011;47553;52.428;13.382;2022-12-18T12:33:30;24.98;;;7.47;;
61644;SDS011;47553;52.428;13.382;2022-12-18T12:35:42;27.45;;;8.35;;